sensor_id;sensor_type;location;lat;lon;timestamp;pressure;altitude;pressure_sealevel;temperature;humidity
6433;BME280;3249;42.690;23.260;2023-08-12T00:00:01;94845.78;;;16.07;100.00
6433;BME280;3249;42.690;23.260;2023-08-12T00:02:36;94861.41;;;15.95;100.00
6433;BME280;3249;42.690;23.260;2023-08-12T00:05:06;94856.94;;;15.91;100.00
6433;BME280;3249;42.690;23.260;2023-08-12T00:07:37;94857.47;;;15.76;100.00
6433;BME280;3249;42.690;23.260;2023-08-12T00:10:11;94850.44;;;15.60;100.00
6433;BME280;3249;42.690;23.260;2023-08-12T00:12:41;94847.13;;;15.48;100.00
6433;BME280;3249;42.690;23.260;2023-08-12T00:15:10;94850.38;;;15.44;100.00
6433;BME280;3249;42.690;23.260;2023-08-12T00:17:39;94847.56;;;15.45;100.00
6433;BME280;3249;42.690;23.260;2023-08-12T00:20:10;94846.91;;;15.38;100.00
6433;BME280;3249;42.690;23.260;2023-08-12T00:22:39;94827.53;;;15.29;100.00
6433;BME280;3249;42.690;23.260;2023-08-12T00:25:12;94843.19;;;15.46;100.00
6433;BME280;3249;42.690;23.260;2023-08-12T00:27:40;94858.09;;;15.39;100.00
6433;BME280;3249;42.690;23.260;2023-08-12T00:30:10;94835.75;;;15.38;100.00
6433;BME280;3249;42.690;23.260;2023-08-12T00:32:39;94849.88;;;15.19;100.00
6433;BME280;3249;42.690;23.260;2023-08-12T00:35:08;94845.25;;;15.21;100.00
6433;BME280;3249;42.690;23.260;2023-08-12T00:37:37;94840.78;;;15.05;100.00
6433;BME280;3249;42.690;23.260;2023-08-12T00:40:12;94838.63;;;15.02;100.00
6433;BME280;3249;42.690;23.260;2023-08-12T00:42:42;94839.34;;;14.97;100.00
6433;BME280;3249;42.690;23.260;2023-08-12T00:45:13;94838.53;;;15.08;100.00
6433;BME280;3249;42.690;23.260;2023-08-12T00:47:42;94837.00;;;15.24;100.00
6433;BME280;3249;42.690;23.260;2023-08-12T00:50:14;94840.78;;;15.05;100.00
6433;BME280;3249;42.690;23.260;2023-08-12T00:52:43;94843.09;;;15.29;100.00
6433;BME280;3249;42.690;23.260;2023-08-12T00:55:16;94837.81;;;15.24;100.00
6433;BME280;3249;42.690;23.260;2023-08-12T00:57:46;94835.50;;;15.39;100.00
6433;BME280;3249;42.690;23.260;2023-08-12T01:00:17;94833.03;;;15.44;100.00
6433;BME280;3249;42.690;23.260;2023-08-12T01:02:47;94835.63;;;15.33;100.00
6433;BME280;3249;42.690;23.260;2023-08-12T01:05:17;94827.16;;;14.98;100.00
6433;BME280;3249;42.690;23.260;2023-08-12T01:07:46;94819.50;;;14.91;100.00
6433;BME280;3249;42.690;23.260;2023-08-12T01:10:19;94817.63;;;14.52;100.00
6433;BME280;3249;42.690;23.260;2023-08-12T01:12:52;94815.06;;;14.41;100.00
6433;BME280;3249;42.690;23.260;2023-08-12T01:15:24;94819.78;;;14.32;100.00
6433;BME280;3249;42.690;23.260;2023-08-12T01:17:54;94816.41;;;14.43;100.00
6433;BME280;3249;42.690;23.260;2023-08-12T01:20:25;94818.31;;;14.71;100.00
6433;BME280;3249;42.690;23.260;2023-08-12T01:22:57;94816.19;;;14.68;100.00
6433;BME280;3249;42.690;23.260;2023-08-12T01:25:30;94821.81;;;14.53;100.00
6433;BME280;3249;42.690;23.260;2023-08-12T01:27:59;94807.19;;;14.36;100.00
6433;BME280;3249;42.690;23.260;2023-08-12T01:30:29;94829.91;;;14.34;100.00
6433;BME280;3249;42.690;23.260;2023-08-12T01:35:52;94824.97;;;14.32;100.00
6433;BME280;3249;42.690;23.260;2023-08-12T01:38:23;94818.66;;;14.51;100.00
6433;BME280;3249;42.690;23.260;2023-08-12T01:40:56;94799.06;;;14.32;100.00
6433;BME280;3249;42.690;23.260;2023-08-12T01:43:25;94807.75;;;14.49;100.00
6433;BME280;3249;42.690;23.260;2023-08-12T01:45:55;94817.09;;;14.27;100.00
6433;BME280;3249;42.690;23.260;2023-08-12T01:48:24;94804.78;;;14.00;100.00
6433;BME280;3249;42.690;23.260;2023-08-12T01:50:53;94816.28;;;14.04;100.00
6433;BME280;3249;42.690;23.260;2023-08-12T01:53:22;94813.09;;;14.02;100.00
6433;BME280;3249;42.690;23.260;2023-08-12T01:55:52;94811.63;;;13.94;100.00
6433;BME280;3249;42.690;23.260;2023-08-12T01:58:23;94819.88;;;14.14;100.00
6433;BME280;3249;42.690;23.260;2023-08-12T02:00:53;94821.00;;;14.18;100.00
6433;BME280;3249;42.690;23.260;2023-08-12T02:03:22;94793.84;;;13.98;100.00
6433;BME280;3249;42.690;23.260;2023-08-12T02:05:51;94825.13;;;13.96;100.00
6433;BME280;3249;42.690;23.260;2023-08-12T02:08:21;94823.66;;;14.00;100.00
6433;BME280;3249;42.690;23.260;2023-08-12T02:10:50;94825.72;;;13.98;100.00
6433;BME280;3249;42.690;23.260;2023-08-12T02:13:19;94829.63;;;13.89;100.00
6433;BME280;3249;42.690;23.260;2023-08-12T02:15:51;94818.72;;;13.98;100.00
6433;BME280;3249;42.690;23.260;2023-08-12T02:18:22;94821.56;;;14.20;100.00
6433;BME280;3249;42.690;23.260;2023-08-12T02:20:51;94820.13;;;14.47;100.00
6433;BME280;3249;42.690;23.260;2023-08-12T02:23:20;94817.53;;;14.47;100.00
6433;BME280;3249;42.690;23.260;2023-08-12T02:25:49;94819.00;;;14.32;100.00
6433;BME280;3249;42.690;23.260;2023-08-12T02:28:18;94813.69;;;14.15;100.00
6433;BME280;3249;42.690;23.260;2023-08-12T02:30:50;94811.31;;;14.14;100.00
6433;BME280;3249;42.690;23.260;2023-08-12T02:33:19;94818.34;;;14.25;100.00
6433;BME280;3249;42.690;23.260;2023-08-12T02:35:48;94823.13;;;14.10;100.00
6433;BME280;3249;42.690;23.260;2023-08-12T02:38:21;94819.75;;;14.09;100.00
6433;BME280;3249;42.690;23.260;2023-08-12T02:40:51;94819.56;;;14.22;100.00
6433;BME280;3249;42.690;23.260;2023-08-12T02:43:21;94824.41;;;14.30;100.00
6433;BME280;3249;42.690;23.260;2023-08-12T02:45:52;94821.50;;;14.27;100.00
6433;BME280;3249;42.690;23.260;2023-08-12T02:48:21;94822.84;;;14.41;100.00
6433;BME280;3249;42.690;23.260;2023-08-12T02:50:50;94810.22;;;14.44;100.00
6433;BME280;3249;42.690;23.260;2023-08-12T02:53:19;94830.63;;;14.29;100.00
6433;BME280;3249;42.690;23.260;2023-08-12T02:55:48;94827.00;;;14.30;100.00
6433;BME280;3249;42.690;23.260;2023-08-12T02:58:17;94834.19;;;14.28;100.00
6433;BME280;3249;42.690;23.260;2023-08-12T03:00:46;94829.50;;;14.25;100.00
6433;BME280;3249;42.690;23.260;2023-08-12T03:03:18;94831.91;;;14.20;100.00
6433;BME280;3249;42.690;23.260;2023-08-12T03:05:48;94829.59;;;14.30;100.00
6433;BME280;3249;42.690;23.260;2023-08-12T03:08:17;94829.00;;;14.17;100.00
6433;BME280;3249;42.690;23.260;2023-08-12T03:10:47;94828.31;;;13.98;100.00
6433;BME280;3249;42.690;23.260;2023-08-12T03:13:17;94819.63;;;13.81;100.00
6433;BME280;3249;42.690;23.260;2023-08-12T03:15:47;94829.50;;;13.84;100.00
6433;BME280;3249;42.690;23.260;2023-08-12T03:18:19;94833.91;;;13.95;100.00
6433;BME280;3249;42.690;23.260;2023-08-12T03:20:48;94838.09;;;14.08;100.00
6433;BME280;3249;42.690;23.260;2023-08-12T03:23:19;94839.28;;;14.23;100.00
6433;BME280;3249;42.690;23.260;2023-08-12T03:25:48;94846.59;;;14.26;100.00
6433;BME280;3249;42.690;23.260;2023-08-12T03:28:17;94841.28;;;14.44;100.00
6433;BME280;3249;42.690;23.260;2023-08-12T03:30:50;94833.97;;;14.53;100.00
6433;BME280;3249;42.690;23.260;2023-08-12T03:33:25;94838.16;;;14.42;100.00
6433;BME280;3249;42.690;23.260;2023-08-12T03:35:58;94840.75;;;14.31;100.00
6433;BME280;3249;42.690;23.260;2023-08-12T03:38:28;94839.50;;;14.22;100.00
6433;BME280;3249;42.690;23.260;2023-08-12T03:40:57;94829.19;;;13.92;100.00
6433;BME280;3249;42.690;23.260;2023-08-12T03:43:26;94847.13;;;14.05;100.00
6433;BME280;3249;42.690;23.260;2023-08-12T03:45:56;94842.91;;;13.93;100.00
6433;BME280;3249;42.690;23.260;2023-08-12T03:48:28;94849.38;;;14.13;100.00
6433;BME280;3249;42.690;23.260;2023-08-12T03:50:59;94848.69;;;14.18;100.00
6433;BME280;3249;42.690;23.260;2023-08-12T03:53:28;94849.41;;;14.36;100.00
6433;BME280;3249;42.690;23.260;2023-08-12T03:55:57;94841.31;;;14.33;100.00
6433;BME280;3249;42.690;23.260;2023-08-12T03:58:28;94854.47;;;14.54;100.00
6433;BME280;3249;42.690;23.260;2023-08-12T04:00:58;94852.22;;;14.69;100.00
6433;BME280;3249;42.690;23.260;2023-08-12T04:03:29;94848.16;;;14.96;100.00
6433;BME280;3249;42.690;23.260;2023-08-12T04:05:58;94858.66;;;15.29;100.00
6433;BME280;3249;42.690;23.260;2023-08-12T04:08:29;94855.25;;;15.68;100.00
6433;BME280;3249;42.690;23.260;2023-08-12T04:10:58;94863.09;;;16.01;100.00
6433;BME280;3249;42.690;23.260;2023-08-12T04:13:27;94857.09;;;16.01;100.00
6433;BME280;3249;42.690;23.260;2023-08-12T04:15:56;94857.06;;;16.12;100.00
6433;BME280;3249;42.690;23.260;2023-08-12T04:18:25;94862.59;;;15.88;100.00
6433;BME280;3249;42.690;23.260;2023-08-12T04:20:57;94865.56;;;15.80;100.00
6433;BME280;3249;42.690;23.260;2023-08-12T04:23:26;94859.72;;;15.56;100.00
6433;BME280;3249;42.690;23.260;2023-08-12T04:25:55;94864.25;;;15.49;100.00
6433;BME280;3249;42.690;23.260;2023-08-12T04:28:26;94853.72;;;15.56;100.00
6433;BME280;3249;42.690;23.260;2023-08-12T04:30:55;94865.00;;;15.61;100.00
6433;BME280;3249;42.690;23.260;2023-08-12T04:33:25;94859.44;;;15.69;100.00
6433;BME280;3249;42.690;23.260;2023-08-12T04:35:57;94869.34;;;15.72;100.00
6433;BME280;3249;42.690;23.260;2023-08-12T04:38:26;94866.84;;;15.77;100.00
6433;BME280;3249;42.690;23.260;2023-08-12T04:40:58;94862.19;;;15.51;100.00
6433;BME280;3249;42.690;23.260;2023-08-12T04:43:28;94864.03;;;15.39;100.00
6433;BME280;3249;42.690;23.260;2023-08-12T04:45:58;94859.34;;;15.36;100.00
6433;BME280;3249;42.690;23.260;2023-08-12T04:48:26;94863.72;;;15.36;100.00
6433;BME280;3249;42.690;23.260;2023-08-12T04:50:58;94856.16;;;15.46;100.00
6433;BME280;3249;42.690;23.260;2023-08-12T04:53:29;94863.44;;;15.60;100.00
6433;BME280;3249;42.690;23.260;2023-08-12T04:55:58;94864.41;;;15.87;100.00
6433;BME280;3249;42.690;23.260;2023-08-12T04:58:28;94869.41;;;16.22;100.00
6433;BME280;3249;42.690;23.260;2023-08-12T05:00:57;94875.69;;;16.09;100.00
6433;BME280;3249;42.690;23.260;2023-08-12T05:03:26;94871.88;;;16.45;100.00
6433;BME280;3249;42.690;23.260;2023-08-12T05:05:58;94872.97;;;16.32;100.00
6433;BME280;3249;42.690;23.260;2023-08-12T05:08:27;94870.38;;;16.32;100.00
6433;BME280;3249;42.690;23.260;2023-08-12T05:10:57;94870.38;;;16.32;100.00
6433;BME280;3249;42.690;23.260;2023-08-12T05:13:26;94876.19;;;16.39;100.00
6433;BME280;3249;42.690;23.260;2023-08-12T05:15:56;94873.34;;;16.24;100.00
6433;BME280;3249;42.690;23.260;2023-08-12T05:18:24;94875.31;;;16.34;100.00
6433;BME280;3249;42.690;23.260;2023-08-12T05:20:55;94885.72;;;16.50;100.00
6433;BME280;3249;42.690;23.260;2023-08-12T05:23:27;94887.31;;;16.51;100.00
6433;BME280;3249;42.690;23.260;2023-08-12T05:25:56;94890.53;;;16.75;100.00
6433;BME280;3249;42.690;23.260;2023-08-12T05:28:25;94893.88;;;16.92;100.00
6433;BME280;3249;42.690;23.260;2023-08-12T05:30:54;94897.97;;;17.04;100.00
6433;BME280;3249;42.690;23.260;2023-08-12T05:33:23;94892.75;;;17.04;100.00
6433;BME280;3249;42.690;23.260;2023-08-12T05:35:52;94887.13;;;16.74;100.00
6433;BME280;3249;42.690;23.260;2023-08-12T05:38:21;94894.78;;;16.81;100.00
6433;BME280;3249;42.690;23.260;2023-08-12T05:40:53;94895.81;;;16.63;100.00
6433;BME280;3249;42.690;23.260;2023-08-12T05:43:22;94897.97;;;17.04;100.00
6433;BME280;3249;42.690;23.260;2023-08-12T05:45:51;94905.84;;;17.31;100.00
6433;BME280;3249;42.690;23.260;2023-08-12T05:48:20;94904.09;;;17.36;100.00
6433;BME280;3249;42.690;23.260;2023-08-12T05:50:49;94883.75;;;17.33;100.00
6433;BME280;3249;42.690;23.260;2023-08-12T05:53:18;94897.97;;;17.42;100.00
6433;BME280;3249;42.690;23.260;2023-08-12T05:55:47;94904.97;;;17.63;100.00
6433;BME280;3249;42.690;23.260;2023-08-12T05:58:18;94897.31;;;17.78;100.00
6433;BME280;3249;42.690;23.260;2023-08-12T06:00:47;94891.63;;;17.60;100.00
6433;BME280;3249;42.690;23.260;2023-08-12T06:03:17;94895.63;;;17.67;100.00
6433;BME280;3249;42.690;23.260;2023-08-12T06:05:46;94887.88;;;17.72;100.00
6433;BME280;3249;42.690;23.260;2023-08-12T06:08:15;94886.78;;;17.25;100.00
6433;BME280;3249;42.690;23.260;2023-08-12T06:10:44;94871.75;;;16.89;100.00
6433;BME280;3249;42.690;23.260;2023-08-12T06:13:13;94881.94;;;17.12;100.00
6433;BME280;3249;42.690;23.260;2023-08-12T06:15:45;94872.16;;;17.19;100.00
6433;BME280;3249;42.690;23.260;2023-08-12T06:18:14;94879.78;;;17.47;100.00
6433;BME280;3249;42.690;23.260;2023-08-12T06:20:43;94870.56;;;17.61;100.00
6433;BME280;3249;42.690;23.260;2023-08-12T06:23:12;94875.88;;;17.71;100.00
6433;BME280;3249;42.690;23.260;2023-08-12T06:25:41;94881.75;;;18.15;100.00
6433;BME280;3249;42.690;23.260;2023-08-12T06:28:11;94875.06;;;17.92;100.00
6433;BME280;3249;42.690;23.260;2023-08-12T06:30:47;94878.13;;;17.89;100.00
6433;BME280;3249;42.690;23.260;2023-08-12T06:33:16;94875.41;;;17.74;100.00
6433;BME280;3249;42.690;23.260;2023-08-12T06:35:45;94865.91;;;17.90;100.00
6433;BME280;3249;42.690;23.260;2023-08-12T06:38:14;94856.91;;;18.02;100.00
6433;BME280;3249;42.690;23.260;2023-08-12T06:40:43;94865.22;;;18.31;100.00
6433;BME280;3249;42.690;23.260;2023-08-12T06:43:12;94868.81;;;18.20;100.00
6433;BME280;3249;42.690;23.260;2023-08-12T06:45:41;94839.63;;;17.91;100.00
6433;BME280;3249;42.690;23.260;2023-08-12T06:48:13;94858.94;;;18.27;100.00
6433;BME280;3249;42.690;23.260;2023-08-12T06:50:43;94859.19;;;18.26;100.00
6433;BME280;3249;42.690;23.260;2023-08-12T06:53:12;94856.88;;;18.29;100.00
6433;BME280;3249;42.690;23.260;2023-08-12T06:55:44;94862.13;;;18.66;100.00
6433;BME280;3249;42.690;23.260;2023-08-12T06:58:13;94856.56;;;18.94;100.00
6433;BME280;3249;42.690;23.260;2023-08-12T07:00:42;94841.72;;;18.58;100.00
6433;BME280;3249;42.690;23.260;2023-08-12T07:03:14;94859.09;;;18.84;100.00
6433;BME280;3249;42.690;23.260;2023-08-12T07:05:43;94854.38;;;18.81;100.00
6433;BME280;3249;42.690;23.260;2023-08-12T07:08:12;94861.47;;;18.90;100.00
6433;BME280;3249;42.690;23.260;2023-08-12T07:10:42;94843.78;;;18.92;100.00
6433;BME280;3249;42.690;23.260;2023-08-12T07:13:11;94861.31;;;19.02;100.00
6433;BME280;3249;42.690;23.260;2023-08-12T07:15:40;94862.09;;;19.07;100.00
6433;BME280;3249;42.690;23.260;2023-08-12T07:18:09;94866.00;;;19.05;91.31
6433;BME280;3249;42.690;23.260;2023-08-12T07:20:41;94860.53;;;19.11;82.88
6433;BME280;3249;42.690;23.260;2023-08-12T07:23:10;94865.91;;;19.31;77.79
6433;BME280;3249;42.690;23.260;2023-08-12T07:25:38;94876.44;;;19.56;72.82
6433;BME280;3249;42.690;23.260;2023-08-12T07:28:07;94868.31;;;19.53;81.99
6433;BME280;3249;42.690;23.260;2023-08-12T07:30:37;94872.03;;;19.62;84.12
6433;BME280;3249;42.690;23.260;2023-08-12T07:33:07;94864.19;;;19.77;84.53
6433;BME280;3249;42.690;23.260;2023-08-12T07:35:35;94867.41;;;19.94;84.55
6433;BME280;3249;42.690;23.260;2023-08-12T07:38:07;94866.94;;;20.22;79.18
6433;BME280;3249;42.690;23.260;2023-08-12T07:40:36;94866.34;;;19.95;84.30
6433;BME280;3249;42.690;23.260;2023-08-12T07:43:05;94860.06;;;19.96;85.41
6433;BME280;3249;42.690;23.260;2023-08-12T07:45:34;94853.53;;;19.88;85.73
6433;BME280;3249;42.690;23.260;2023-08-12T07:48:04;94861.16;;;20.15;82.68
6433;BME280;3249;42.690;23.260;2023-08-12T07:50:33;94853.88;;;20.37;82.71
6433;BME280;3249;42.690;23.260;2023-08-12T07:53:02;94857.53;;;20.46;83.07
6433;BME280;3249;42.690;23.260;2023-08-12T07:55:35;94852.28;;;20.66;81.79
6433;BME280;3249;42.690;23.260;2023-08-12T07:58:04;94848.63;;;20.37;81.06
6433;BME280;3249;42.690;23.260;2023-08-12T08:00:33;94843.38;;;20.32;82.62
6433;BME280;3249;42.690;23.260;2023-08-12T08:03:02;94838.44;;;20.40;80.26
6433;BME280;3249;42.690;23.260;2023-08-12T08:05:31;94849.41;;;20.42;79.18
6433;BME280;3249;42.690;23.260;2023-08-12T08:08:00;94833.47;;;20.34;78.64
6433;BME280;3249;42.690;23.260;2023-08-12T08:10:29;94843.91;;;20.59;75.61
6433;BME280;3249;42.690;23.260;2023-08-12T08:13:01;94847.50;;;21.03;77.19
6433;BME280;3249;42.690;23.260;2023-08-12T08:15:30;94853.00;;;21.06;77.59
6433;BME280;3249;42.690;23.260;2023-08-12T08:17:59;94846.75;;;20.87;79.41
6433;BME280;3249;42.690;23.260;2023-08-12T08:20:30;94841.75;;;20.96;75.61
6433;BME280;3249;42.690;23.260;2023-08-12T08:22:59;94827.63;;;21.02;72.06
6433;BME280;3249;42.690;23.260;2023-08-12T08:25:28;94831.50;;;21.14;68.54
6433;BME280;3249;42.690;23.260;2023-08-12T08:27:57;94845.59;;;21.28;66.95
6433;BME280;3249;42.690;23.260;2023-08-12T08:30:29;94849.41;;;21.51;64.27
6433;BME280;3249;42.690;23.260;2023-08-12T08:32:58;94853.06;;;21.60;64.37
6433;BME280;3249;42.690;23.260;2023-08-12T08:35:27;94848.19;;;21.87;63.01
6433;BME280;3249;42.690;23.260;2023-08-12T08:37:56;94838.72;;;21.96;61.49
6433;BME280;3249;42.690;23.260;2023-08-12T08:40:26;94837.88;;;22.00;62.50
6433;BME280;3249;42.690;23.260;2023-08-12T08:42:59;94843.34;;;21.60;66.00
6433;BME280;3249;42.690;23.260;2023-08-12T08:45:32;94829.44;;;21.65;64.39
6433;BME280;3249;42.690;23.260;2023-08-12T08:48:03;94841.00;;;21.59;64.40
6433;BME280;3249;42.690;23.260;2023-08-12T08:50:31;94825.13;;;21.89;61.36
6433;BME280;3249;42.690;23.260;2023-08-12T08:53:01;94838.00;;;22.19;60.56
6433;BME280;3249;42.690;23.260;2023-08-12T08:55:31;94840.47;;;22.39;58.52
6433;BME280;3249;42.690;23.260;2023-08-12T08:58:00;94822.28;;;22.19;59.04
6433;BME280;3249;42.690;23.260;2023-08-12T09:00:33;94839.16;;;22.42;58.79
6433;BME280;3249;42.690;23.260;2023-08-12T09:03:03;94830.50;;;22.41;58.45
6433;BME280;3249;42.690;23.260;2023-08-12T09:05:34;94826.50;;;22.20;60.11
6433;BME280;3249;42.690;23.260;2023-08-12T09:08:05;94821.22;;;21.86;63.97
6433;BME280;3249;42.690;23.260;2023-08-12T09:10:38;94812.28;;;21.87;64.33
6433;BME280;3249;42.690;23.260;2023-08-12T09:13:08;94819.44;;;21.67;60.99
6433;BME280;3249;42.690;23.260;2023-08-12T09:15:40;94816.31;;;21.70;61.49
6433;BME280;3249;42.690;23.260;2023-08-12T09:18:10;94815.72;;;21.83;62.64
6433;BME280;3249;42.690;23.260;2023-08-12T09:20:41;94816.31;;;22.08;59.57
6433;BME280;3249;42.690;23.260;2023-08-12T09:23:11;94812.81;;;22.23;58.77
6433;BME280;3249;42.690;23.260;2023-08-12T09:25:44;94816.78;;;22.54;55.23
6433;BME280;3249;42.690;23.260;2023-08-12T09:28:13;94809.56;;;22.36;59.57
6433;BME280;3249;42.690;23.260;2023-08-12T09:30:50;94792.19;;;22.12;59.03
6433;BME280;3249;42.690;23.260;2023-08-12T09:33:24;94802.72;;;22.35;57.39
6433;BME280;3249;42.690;23.260;2023-08-12T09:35:54;94798.81;;;22.66;55.67
6433;BME280;3249;42.690;23.260;2023-08-12T09:38:23;94794.63;;;22.65;55.81
6433;BME280;3249;42.690;23.260;2023-08-12T09:40:52;94788.75;;;22.97;53.03
6433;BME280;3249;42.690;23.260;2023-08-12T09:43:23;94795.81;;;22.78;54.66
6433;BME280;3249;42.690;23.260;2023-08-12T09:45:56;94796.22;;;22.61;54.76
6433;BME280;3249;42.690;23.260;2023-08-12T09:48:25;94780.00;;;22.59;55.69
6433;BME280;3249;42.690;23.260;2023-08-12T09:50:54;94786.06;;;22.78;55.57
6433;BME280;3249;42.690;23.260;2023-08-12T09:53:24;94792.44;;;22.96;56.77
6433;BME280;3249;42.690;23.260;2023-08-12T09:55:54;94786.31;;;22.82;54.70
6433;BME280;3249;42.690;23.260;2023-08-12T09:58:27;94795.19;;;23.09;52.49
6433;BME280;3249;42.690;23.260;2023-08-12T10:01:00;94784.53;;;23.24;48.29
6433;BME280;3249;42.690;23.260;2023-08-12T10:03:32;94775.13;;;23.42;47.79
6433;BME280;3249;42.690;23.260;2023-08-12T10:06:02;94751.47;;;23.42;47.58
6433;BME280;3249;42.690;23.260;2023-08-12T10:08:31;94771.00;;;23.73;47.29
6433;BME280;3249;42.690;23.260;2023-08-12T10:11:01;94778.09;;;23.35;48.42
6433;BME280;3249;42.690;23.260;2023-08-12T10:13:30;94767.34;;;23.50;46.63
6433;BME280;3249;42.690;23.260;2023-08-12T10:16:03;94772.56;;;23.55;47.48
6433;BME280;3249;42.690;23.260;2023-08-12T10:18:33;94769.69;;;23.70;46.05
6433;BME280;3249;42.690;23.260;2023-08-12T10:21:04;94759.94;;;23.89;47.18
6433;BME280;3249;42.690;23.260;2023-08-12T10:23:35;94765.50;;;23.88;46.44
6433;BME280;3249;42.690;23.260;2023-08-12T10:26:05;94757.84;;;23.54;47.80
6433;BME280;3249;42.690;23.260;2023-08-12T10:28:36;94770.09;;;23.82;48.11
6433;BME280;3249;42.690;23.260;2023-08-12T10:31:10;94762.47;;;23.81;44.58
6433;BME280;3249;42.690;23.260;2023-08-12T10:33:40;94759.16;;;23.57;46.36
6433;BME280;3249;42.690;23.260;2023-08-12T10:36:09;94760.50;;;23.73;44.59
6433;BME280;3249;42.690;23.260;2023-08-12T10:38:38;94749.19;;;23.72;46.36
6433;BME280;3249;42.690;23.260;2023-08-12T10:41:18;94749.53;;;23.84;46.36
6433;BME280;3249;42.690;23.260;2023-08-12T10:43:54;94750.59;;;23.83;45.60
6433;BME280;3249;42.690;23.260;2023-08-12T10:46:28;94752.28;;;24.11;44.38
6433;BME280;3249;42.690;23.260;2023-08-12T10:48:59;94752.75;;;24.13;43.40
6433;BME280;3249;42.690;23.260;2023-08-12T10:51:41;94750.50;;;24.07;42.98
6433;BME280;3249;42.690;23.260;2023-08-12T10:54:17;94732.19;;;23.83;42.98
6433;BME280;3249;42.690;23.260;2023-08-12T10:57:08;94742.00;;;23.96;42.61
6433;BME280;3249;42.690;23.260;2023-08-12T10:59:56;94738.75;;;24.18;41.03
6433;BME280;3249;42.690;23.260;2023-08-12T11:02:31;94744.94;;;24.40;41.16
6433;BME280;3249;42.690;23.260;2023-08-12T11:05:03;94738.69;;;24.36;40.90
6433;BME280;3249;42.690;23.260;2023-08-12T11:07:37;94732.75;;;24.44;39.57
6433;BME280;3249;42.690;23.260;2023-08-12T11:10:10;94740.81;;;24.66;39.23
6433;BME280;3249;42.690;23.260;2023-08-12T11:12:41;94745.00;;;24.67;37.57
6433;BME280;3249;42.690;23.260;2023-08-12T11:15:10;94734.28;;;24.64;37.10
6433;BME280;3249;42.690;23.260;2023-08-12T11:17:42;94743.75;;;24.65;36.62
6433;BME280;3249;42.690;23.260;2023-08-12T11:20:13;94736.91;;;24.77;37.73
6433;BME280;3249;42.690;23.260;2023-08-12T11:22:44;94732.25;;;24.74;34.89
6433;BME280;3249;42.690;23.260;2023-08-12T11:25:14;94734.88;;;25.01;35.07
6433;BME280;3249;42.690;23.260;2023-08-12T11:27:45;94725.66;;;25.39;36.04
6433;BME280;3249;42.690;23.260;2023-08-12T11:30:15;94731.66;;;25.67;35.49
6433;BME280;3249;42.690;23.260;2023-08-12T11:32:48;94720.50;;;25.34;36.79
6433;BME280;3249;42.690;23.260;2023-08-12T11:35:18;94729.00;;;25.31;37.32
6433;BME280;3249;42.690;23.260;2023-08-12T11:37:49;94722.25;;;25.12;37.31
6433;BME280;3249;42.690;23.260;2023-08-12T11:40:19;94725.66;;;25.12;37.04
6433;BME280;3249;42.690;23.260;2023-08-12T11:42:50;94717.84;;;25.21;36.38
6433;BME280;3249;42.690;23.260;2023-08-12T11:45:24;94716.16;;;24.76;36.03
6433;BME280;3249;42.690;23.260;2023-08-12T11:47:56;94711.81;;;24.53;37.66
6433;BME280;3249;42.690;23.260;2023-08-12T11:50:28;94713.06;;;24.42;36.88
6433;BME280;3249;42.690;23.260;2023-08-12T11:52:57;94717.41;;;24.78;37.14
6433;BME280;3249;42.690;23.260;2023-08-12T11:55:26;94718.47;;;24.91;35.30
6433;BME280;3249;42.690;23.260;2023-08-12T11:57:58;94709.97;;;24.94;36.07
6433;BME280;3249;42.690;23.260;2023-08-12T12:00:46;94720.19;;;25.22;35.56
6433;BME280;3249;42.690;23.260;2023-08-12T12:03:19;94710.34;;;25.28;36.33
6433;BME280;3249;42.690;23.260;2023-08-12T12:05:48;94709.28;;;25.29;35.34
6433;BME280;3249;42.690;23.260;2023-08-12T12:08:17;94719.66;;;25.47;35.28
6433;BME280;3249;42.690;23.260;2023-08-12T12:10:47;94702.84;;;25.21;39.95
6433;BME280;3249;42.690;23.260;2023-08-12T12:13:17;94689.94;;;25.33;38.64
6433;BME280;3249;42.690;23.260;2023-08-12T12:15:46;94715.25;;;25.56;38.97
6433;BME280;3249;42.690;23.260;2023-08-12T12:18:15;94699.69;;;25.19;38.85
6433;BME280;3249;42.690;23.260;2023-08-12T12:20:58;94701.91;;;24.90;40.62
6433;BME280;3249;42.690;23.260;2023-08-12T12:23:28;94709.28;;;25.15;41.02
6433;BME280;3249;42.690;23.260;2023-08-12T12:25:58;94709.66;;;25.09;40.16
6433;BME280;3249;42.690;23.260;2023-08-12T12:28:28;94704.78;;;25.16;40.50
6433;BME280;3249;42.690;23.260;2023-08-12T12:30:57;94710.22;;;25.19;40.22
6433;BME280;3249;42.690;23.260;2023-08-12T12:33:26;94688.19;;;25.15;40.32
6433;BME280;3249;42.690;23.260;2023-08-12T12:35:58;94692.19;;;25.13;40.03
6433;BME280;3249;42.690;23.260;2023-08-12T12:38:27;94694.34;;;24.97;38.55
6433;BME280;3249;42.690;23.260;2023-08-12T12:40:56;94672.41;;;24.88;40.41
6433;BME280;3249;42.690;23.260;2023-08-12T12:43:25;94696.22;;;24.83;39.83
6433;BME280;3249;42.690;23.260;2023-08-12T12:45:54;94684.16;;;24.82;38.53
6433;BME280;3249;42.690;23.260;2023-08-12T12:48:23;94678.88;;;24.82;39.29
6433;BME280;3249;42.690;23.260;2023-08-12T12:50:52;94679.03;;;24.99;40.18
6433;BME280;3249;42.690;23.260;2023-08-12T12:53:24;94669.22;;;25.27;39.58
6433;BME280;3249;42.690;23.260;2023-08-12T12:55:53;94673.47;;;25.14;40.69
6433;BME280;3249;42.690;23.260;2023-08-12T12:58:23;94672.97;;;24.99;40.94
6433;BME280;3249;42.690;23.260;2023-08-12T13:00:52;94666.53;;;25.05;41.31
6433;BME280;3249;42.690;23.260;2023-08-12T13:03:21;94669.75;;;25.02;41.03
6433;BME280;3249;42.690;23.260;2023-08-12T13:05:51;94667.72;;;24.99;40.33
6433;BME280;3249;42.690;23.260;2023-08-12T13:08:20;94657.81;;;25.18;40.95
6433;BME280;3249;42.690;23.260;2023-08-12T13:10:51;94660.69;;;25.43;39.87
6433;BME280;3249;42.690;23.260;2023-08-12T13:13:20;94663.19;;;25.26;40.23
6433;BME280;3249;42.690;23.260;2023-08-12T13:15:50;94654.19;;;25.27;38.80
6433;BME280;3249;42.690;23.260;2023-08-12T13:18:19;94668.97;;;25.50;39.52
6433;BME280;3249;42.690;23.260;2023-08-12T13:20:48;94658.72;;;25.13;38.40
6433;BME280;3249;42.690;23.260;2023-08-12T13:23:17;94651.31;;;25.02;39.55